Time;durP1;ratioP1;P1;durP2;ratioP2;P2;SDS_P1;SDS_P2;PMS_P1;PMS_P2;Temp;Humidity;BMP_temperature;BMP_pressure;BME280_temperature;BME280_humidity;BME280_pressure;Samples;Min_cycle;Max_cycle;Signal;HPM_P1;HPM_P2
2023/10/05 00:02:08;;;;;;;;;;;;;;;13.01;93.62;102210.94;5049852;28;1156;-75
2023/10/05 00:04:41;;;;;;;;;;;;;;;13.00;93.34;102214.50;5034231;28;1203;-75
2023/10/05 00:07:32;;;;;;;;;;;;;;;13.01;93.40;102216.16;5031401;28;1329;-74
2023/10/05 00:09:57;;;;;;;;;;;;;;;12.99;93.61;102223.25;5027779;28;1497;-75
2023/10/05 00:12:22;;;;;;;;;;;;;;;12.97;93.43;102235.56;5033498;28;1582;-74
2023/10/05 00:15:14;;;;;;;;;;;;;;;12.98;93.71;102226.78;5054568;28;1156;-76
2023/10/05 00:17:40;;;;;;;;;;;;;;;12.96;93.93;102236.47;5049243;28;1898;-74
2023/10/05 00:20:21;;;;;;;;;;;;;;;12.95;94.00;102227.00;5048213;28;1052;-74
2023/10/05 00:22:49;;;;;;;;;;;;;;;12.95;93.85;102232.19;5051084;28;1091;-75
2023/10/05 00:25:17;;;;;;;;;;;;;;;12.92;94.11;102227.22;5051102;28;1076;-74
2023/10/05 00:27:44;;;;;;;;;;;;;;;12.90;94.00;102229.06;5049726;28;1063;-75
2023/10/05 00:30:12;;;;;;;;;;;;;;;12.89;94.20;102232.63;5034042;28;1178;-75
2023/10/05 00:32:39;;;;;;;;;;;;;;;12.89;94.09;102232.63;5034392;28;1199;-74
2023/10/05 00:35:38;;;;;;;;;;;;;;;12.88;94.67;102233.56;5037123;28;1240;-75
2023/10/05 00:37:59;;;;;;;;;;;;;;;12.87;94.50;102229.31;5051827;28;1228;-74
2023/10/05 00:40:33;;;;;;;;;;;;;;;12.86;94.49;102238.06;5048044;28;1247;-74
2023/10/05 00:43:12;;;;;;;;;;;;;;;12.84;94.59;102238.16;5051288;28;1066;-74
2023/10/05 00:45:39;;;;;;;;;;;;;;;12.83;94.24;102235.66;5051860;28;886;-74
2023/10/05 00:48:13;;;;;;;;;;;;;;;12.83;94.90;102238.25;5049347;28;1179;-76
2023/10/05 00:50:39;;;;;;;;;;;;;;;12.77;94.70;102229.94;5043381;28;1167;-74
2023/10/05 00:53:08;;;;;;;;;;;;;;;12.79;94.59;102244.59;5031272;28;1188;-74
2023/10/05 00:55:35;;;;;;;;;;;;;;;12.79;95.04;102236.78;5043463;28;1905;-74
2023/10/05 00:58:01;;;;;;;;;;;;;;;12.79;94.83;102247.22;5048202;28;1165;-74
2023/10/05 01:00:27;;;;;;;;;;;;;;;12.74;94.94;102240.56;5027482;28;1309;-74
2023/10/05 01:03:21;;;;;;;;;;;;;;;12.73;95.17;102235.44;5046239;28;1156;-74
2023/10/05 01:05:49;;;;;;;;;;;;;;;12.68;95.17;102225.38;5046026;28;1260;-75
2023/10/05 01:08:16;;;;;;;;;;;;;;;12.68;94.95;102235.78;5030320;28;1320;-75
2023/10/05 01:10:48;;;;;;;;;;;;;;;12.67;95.36;102234.13;5036404;28;1304;-74
2023/10/05 01:13:23;;;;;;;;;;;;;;;12.62;95.38;102223.19;5032008;28;1201;-73
2023/10/05 01:15:50;;;;;;;;;;;;;;;12.60;95.67;102232.84;5044723;28;1926;-73
2023/10/05 01:18:15;;;;;;;;;;;;;;;12.59;95.52;102225.97;5031131;28;1699;-75
2023/10/05 01:20:43;;;;;;;;;;;;;;;12.56;95.91;102226.19;5034413;28;1337;-74
2023/10/05 01:23:08;;;;;;;;;;;;;;;12.53;95.79;102215.97;5048164;28;1114;-74
2023/10/05 01:25:36;;;;;;;;;;;;;;;12.48;95.86;102218.88;5037512;28;1381;-75
2023/10/05 01:28:01;;;;;;;;;;;;;;;12.49;95.57;102219.72;5033025;28;1427;-75
2023/10/05 01:30:26;;;;;;;;;;;;;;;12.44;95.78;102217.47;5038944;28;1170;-74
2023/10/05 01:32:53;;;;;;;;;;;;;;;12.46;95.99;102209.53;5057677;28;1142;-75
2023/10/05 01:35:19;;;;;;;;;;;;;;;12.42;96.23;102213.28;5055251;28;1183;-74
2023/10/05 01:37:45;;;;;;;;;;;;;;;12.41;96.30;102209.84;5056430;28;1886;-74
2023/10/05 01:42:40;;;;;;;;;;;;;;;12.39;96.86;102218.69;5050944;28;1188;-75
2023/10/05 01:45:06;;;;;;;;;;;;;;;12.36;96.99;102214.50;5052431;28;1659;-76
2023/10/05 01:47:32;;;;;;;;;;;;;;;12.36;96.92;102218.88;5051851;28;1150;-76
2023/10/05 01:49:57;;;;;;;;;;;;;;;12.38;97.10;102217.00;5040139;28;1210;-74
2023/10/05 01:52:22;;;;;;;;;;;;;;;12.38;97.39;102217.00;5047605;28;1210;-76
2023/10/05 01:54:47;;;;;;;;;;;;;;;12.36;96.99;102218.88;5047224;28;1191;-76
2023/10/05 01:57:16;;;;;;;;;;;;;;;12.37;97.24;102220.53;5045546;28;1981;-75
2023/10/05 01:59:41;;;;;;;;;;;;;;;12.39;97.52;102216.09;5043477;28;1202;-74
2023/10/05 02:02:15;;;;;;;;;;;;;;;12.41;97.10;102217.66;5044255;28;1472;-74
2023/10/05 02:04:43;;;;;;;;;;;;;;;12.42;97.37;102213.28;5029850;28;1187;-73
2023/10/05 02:07:18;;;;;;;;;;;;;;;12.44;97.27;102216.59;5029500;28;1399;-74
2023/10/05 02:09:44;;;;;;;;;;;;;;;12.43;97.26;102220.13;5052549;28;1121;-74
2023/10/05 02:12:09;;;;;;;;;;;;;;;12.41;97.41;102217.66;5048619;28;1447;-75
2023/10/05 02:14:41;;;;;;;;;;;;;;;12.40;97.24;102207.34;5041961;28;1149;-75
2023/10/05 02:17:07;;;;;;;;;;;;;;;12.39;97.40;102208.28;5043851;28;1949;-74
2023/10/05 02:19:36;;;;;;;;;;;;;;;12.38;97.67;102206.59;5035212;28;1347;-75
2023/10/05 02:22:10;;;;;;;;;;;;;;;12.36;97.35;102204.09;5045741;28;1344;-75
2023/10/05 02:24:35;;;;;;;;;;;;;;;12.37;97.50;102210.13;5047556;28;1125;-75
2023/10/05 02:29:27;;;;;;;;;;;;;;;12.35;97.86;102212.03;5052487;28;1119;-74
2023/10/05 02:34:44;;;;;;;;;;;;;;;12.35;97.89;102202.44;5044669;28;1477;-76
2023/10/05 02:37:12;;;;;;;;;;;;;;;12.32;97.77;102194.84;5034258;28;1977;-74
2023/10/05 02:39:37;;;;;;;;;;;;;;;12.32;97.82;102201.81;5043572;28;1256;-76
2023/10/05 02:42:12;;;;;;;;;;;;;;;12.33;97.93;102198.25;5049716;28;1090;-75
2023/10/05 02:44:43;;;;;;;;;;;;;;;12.33;98.21;102193.91;5038111;28;1085;-74
2023/10/05 02:47:09;;;;;;;;;;;;;;;12.31;98.13;102192.34;5056457;28;1208;-75
2023/10/05 02:49:39;;;;;;;;;;;;;;;12.33;98.52;102199.13;5028492;28;1284;-74
2023/10/05 02:52:05;;;;;;;;;;;;;;;12.31;98.21;102193.16;5046116;28;1164;-74
2023/10/05 02:54:30;;;;;;;;;;;;;;;12.33;98.74;102195.66;5044308;28;1077;-75
2023/10/05 02:56:55;;;;;;;;;;;;;;;12.31;98.52;102189.75;5041032;28;1890;-74
2023/10/05 02:59:24;;;;;;;;;;;;;;;12.30;98.38;102175.06;5038155;28;1309;-76
2023/10/05 03:01:52;;;;;;;;;;;;;;;12.30;98.92;102180.28;5048570;28;1226;-74
2023/10/05 03:04:21;;;;;;;;;;;;;;;12.29;98.93;102181.22;5049846;28;1003;-75
2023/10/05 03:06:48;;;;;;;;;;;;;;;12.29;98.88;102179.44;5029577;28;1270;-75
2023/10/05 03:09:13;;;;;;;;;;;;;;;12.31;99.13;102181.94;5042211;28;1232;-76
2023/10/05 03:11:42;;;;;;;;;;;;;;;12.33;98.79;102188.72;5039845;28;1142;-74
2023/10/05 03:14:11;;;;;;;;;;;;;;;12.33;99.25;102183.53;5039392;28;1411;-75
2023/10/05 03:16:43;;;;;;;;;;;;;;;12.32;99.20;102181.81;5048055;28;1913;-73
2023/10/05 03:19:18;;;;;;;;;;;;;;;12.32;98.94;102187.03;5044487;28;1180;-74
2023/10/05 03:21:45;;;;;;;;;;;;;;;12.33;99.38;102187.84;5046520;28;1146;-75
2023/10/05 03:24:13;;;;;;;;;;;;;;;12.30;98.68;102181.09;5051755;28;1183;-74
2023/10/05 03:26:39;;;;;;;;;;;;;;;12.28;99.35;102169.97;5051389;28;1123;-74
2023/10/05 03:29:04;;;;;;;;;;;;;;;12.27;99.25;102185.66;5034966;28;1152;-74
2023/10/05 03:31:32;;;;;;;;;;;;;;;12.26;99.03;102184.00;5032674;28;1214;-73
2023/10/05 03:33:57;;;;;;;;;;;;;;;12.21;98.97;102179.97;5054388;28;1204;-74
2023/10/05 03:36:23;;;;;;;;;;;;;;;12.20;99.04;102182.66;5035585;28;1898;-74
2023/10/05 03:38:55;;;;;;;;;;;;;;;12.19;99.68;102176.63;5049860;28;1142;-74
2023/10/05 03:41:26;;;;;;;;;;;;;;;12.18;99.13;102174.97;5046185;28;1255;-76
2023/10/05 03:43:51;;;;;;;;;;;;;;;12.17;99.26;102183.69;5045364;28;1122;-74
2023/10/05 03:46:17;;;;;;;;;;;;;;;12.15;99.30;102185.56;5030846;28;1523;-74
2023/10/05 03:48:43;;;;;;;;;;;;;;;12.14;99.40;102186.50;5028285;28;1449;-74
2023/10/05 03:51:09;;;;;;;;;;;;;;;12.13;99.70;102187.44;5045131;28;1256;-74
2023/10/05 03:53:34;;;;;;;;;;;;;;;12.12;99.52;102183.16;5047523;28;1294;-75
2023/10/05 03:55:59;;;;;;;;;;;;;;;12.11;99.31;102194.50;5027341;28;1894;-76
2023/10/05 03:58:24;;;;;;;;;;;;;;;12.06;99.51;102196.59;5027331;28;1276;-74
2023/10/05 04:00:49;;;;;;;;;;;;;;;12.05;99.51;102194.91;5049162;28;1198;-75
2023/10/05 04:03:15;;;;;;;;;;;;;;;12.05;99.47;102188.88;5047487;28;1191;-74
2023/10/05 04:05:40;;;;;;;;;;;;;;;12.05;99.67;102175.88;5045245;28;1193;-75
2023/10/05 04:08:16;;;;;;;;;;;;;;;12.03;100.00;102188.97;5044503;28;1211;-74
2023/10/05 04:10:49;;;;;;;;;;;;;;;12.03;99.95;102180.34;5044892;28;1186;-74
2023/10/05 04:13:16;;;;;;;;;;;;;;;12.02;100.00;102179.50;5035955;28;1249;-74
2023/10/05 04:15:41;;;;;;;;;;;;;;;12.00;100.00;102181.38;5045565;28;1914;-73
2023/10/05 04:18:11;;;;;;;;;;;;;;;12.00;100.00;102176.19;5045292;28;1224;-74
2023/10/05 04:20:37;;;;;;;;;;;;;;;12.00;100.00;102185.75;5024513;28;1375;-75
2023/10/05 04:23:02;;;;;;;;;;;;;;;12.01;100.00;102193.44;5047576;28;1185;-76
2023/10/05 04:25:28;;;;;;;;;;;;;;;12.02;100.00;102194.28;5039346;28;1120;-74
2023/10/05 04:27:53;;;;;;;;;;;;;;;12.04;100.00;102188.03;5042428;28;1181;-74
2023/10/05 04:30:21;;;;;;;;;;;;;;;12.05;100.00;102194.91;5044813;28;1632;-74
2023/10/05 04:32:46;;;;;;;;;;;;;;;12.06;100.00;102206.16;5029195;28;1178;-74
2023/10/05 04:35:21;;;;;;;;;;;;;;;12.02;100.00;102200.31;5030676;28;1374;-74
2023/10/05 04:37:47;;;;;;;;;;;;;;;12.03;100.00;102194.16;5046738;28;1898;-74
2023/10/05 04:40:15;;;;;;;;;;;;;;;12.04;100.00;102198.44;5038006;28;1199;-74
2023/10/05 04:42:41;;;;;;;;;;;;;;;12.05;100.00;102194.09;5042922;28;1279;-74
2023/10/05 04:45:11;;;;;;;;;;;;;;;12.05;100.00;102197.53;5044570;28;1020;-74
2023/10/05 04:47:37;;;;;;;;;;;;;;;12.05;100.00;102194.91;5024054;28;1637;-76
2023/10/05 04:50:05;;;;;;;;;;;;;;;12.04;100.00;102182.81;5031614;28;1659;-75
2023/10/05 04:52:33;;;;;;;;;;;;;;;12.05;100.00;102188.88;5042336;28;1091;-74
2023/10/05 04:55:12;;;;;;;;;;;;;;;12.09;100.00;102188.56;5029137;28;1235;-76
2023/10/05 04:57:39;;;;;;;;;;;;;;;12.05;100.00;102194.91;5053952;28;1886;-74
2023/10/05 05:03:56;;;;;;;;;;;;;;;12.03;100.00;102181.16;5029602;28;1300;-75
2023/10/05 05:08:24;;;;;;;;;;;;;;;12.00;100.00;102181.38;5055499;28;1094;-76
2023/10/05 05:10:49;;;;;;;;;;;;;;;12.02;100.00;102189.06;5057746;28;1162;-74
2023/10/05 05:13:14;;;;;;;;;;;;;;;12.02;100.00;102189.06;5038520;28;1217;-75
2023/10/05 05:15:40;;;;;;;;;;;;;;;12.00;100.00;102194.38;5047426;28;1977;-74
2023/10/05 05:18:08;;;;;;;;;;;;;;;12.00;100.00;102197.00;5055939;28;1156;-74
2023/10/05 05:20:33;;;;;;;;;;;;;;;11.99;100.00;102195.31;5049009;28;1138;-74
2023/10/05 05:22:58;;;;;;;;;;;;;;;11.99;100.00;102205.72;5030124;28;1345;-74
2023/10/05 05:25:23;;;;;;;;;;;;;;;11.94;100.00;102203.41;5050997;28;1117;-74
2023/10/05 05:27:49;;;;;;;;;;;;;;;11.97;100.00;102202.38;5051735;28;1148;-73
2023/10/05 05:30:24;;;;;;;;;;;;;;;11.97;100.00;102207.56;5050182;28;1352;-74
2023/10/05 05:32:50;;;;;;;;;;;;;;;11.95;100.00;102210.28;5048731;28;1099;-73
2023/10/05 05:35:16;;;;;;;;;;;;;;;11.94;100.00;102213.00;5045085;28;1374;-74
2023/10/05 05:37:42;;;;;;;;;;;;;;;11.93;100.00;102212.16;5049563;28;1906;-75
2023/10/05 05:40:12;;;;;;;;;;;;;;;11.90;100.00;102208.91;5026884;28;1374;-74
2023/10/05 05:42:37;;;;;;;;;;;;;;;11.90;100.00;102211.50;5044288;28;1205;-74
2023/10/05 05:45:07;;;;;;;;;;;;;;;11.90;100.00;102227.13;5045215;28;1525;-75
2023/10/05 05:47:33;;;;;;;;;;;;;;;11.90;100.00;102221.91;5045884;28;1243;-77
2023/10/05 05:50:00;;;;;;;;;;;;;;;11.90;100.00;102227.13;5045211;28;1074;-75
2023/10/05 05:52:26;;;;;;;;;;;;;;;11.90;100.00;102237.50;5026314;28;1297;-74
2023/10/05 05:54:51;;;;;;;;;;;;;;;11.90;100.00;102232.31;5031219;28;1209;-74
2023/10/05 05:57:20;;;;;;;;;;;;;;;11.88;100.00;102240.22;5040977;28;2278;-74
2023/10/05 05:59:46;;;;;;;;;;;;;;;11.88;100.00;102236.78;5044853;28;1001;-74
2023/10/05 06:02:11;;;;;;;;;;;;;;;11.87;100.00;102232.50;5035100;28;1363;-74
2023/10/05 06:04:40;;;;;;;;;;;;;;;11.84;100.00;102238.75;5050243;28;1334;-76
2023/10/05 06:07:13;;;;;;;;;;;;;;;11.83;100.00;102236.25;5051223;28;1156;-74
2023/10/05 06:09:43;;;;;;;;;;;;;;;11.83;100.00;102236.25;5051399;28;1263;-77
2023/10/05 06:12:10;;;;;;;;;;;;;;;11.82;100.00;102244.97;5050626;28;1133;-74
2023/10/05 06:14:36;;;;;;;;;;;;;;;11.82;100.00;102244.97;5033910;28;1368;-74
2023/10/05 06:17:01;;;;;;;;;;;;;;;11.80;100.00;102246.81;5045791;28;1902;-74
2023/10/05 06:19:27;;;;;;;;;;;;;;;11.81;100.00;102248.47;5027052;28;1590;-75
2023/10/05 06:21:52;;;;;;;;;;;;;;;11.83;100.00;102251.84;5044859;28;1203;-76
2023/10/05 06:24:18;;;;;;;;;;;;;;;11.81;100.00;102254.53;5052082;28;1089;-76
2023/10/05 06:26:45;;;;;;;;;;;;;;;11.82;100.00;102239.78;5049374;28;1154;-73
2023/10/05 06:29:10;;;;;;;;;;;;;;;11.82;100.00;102250.19;5049545;28;1192;-75
2023/10/05 06:31:38;;;;;;;;;;;;;;;11.84;100.00;102253.50;5046890;28;2021;-74
2023/10/05 06:34:10;;;;;;;;;;;;;;;11.84;100.00;102254.34;5050169;28;1669;-74
2023/10/05 06:36:44;;;;;;;;;;;;;;;11.84;100.00;102254.34;5052732;28;1906;-74
2023/10/05 06:39:09;;;;;;;;;;;;;;;11.86;100.00;102247.25;5041997;28;1159;-73
2023/10/05 06:41:36;;;;;;;;;;;;;;;11.86;100.00;102236.03;5046946;28;1031;-73
2023/10/05 06:44:02;;;;;;;;;;;;;;;11.90;100.00;102232.31;5046018;28;1102;-73
2023/10/05 06:46:28;;;;;;;;;;;;;;;11.90;100.00;102242.72;5047171;28;1168;-74
2023/10/05 06:48:53;;;;;;;;;;;;;;;11.92;100.00;102256.44;5047572;28;1235;-74
2023/10/05 06:51:26;;;;;;;;;;;;;;;11.94;100.00;102254.59;5046638;28;1155;-75
2023/10/05 06:53:52;;;;;;;;;;;;;;;11.95;100.00;102261.44;5046678;28;1207;-74
2023/10/05 06:56:18;;;;;;;;;;;;;;;11.98;100.00;102271.63;5043955;28;1894;-74
2023/10/05 06:58:43;;;;;;;;;;;;;;;11.97;100.00;102272.59;5024401;28;1314;-74
2023/10/05 07:01:09;;;;;;;;;;;;;;;12.00;100.00;102285.41;5034415;28;1216;-74
2023/10/05 07:03:34;;;;;;;;;;;;;;;12.01;100.00;102276.66;5046326;28;1222;-74
2023/10/05 07:05:59;;;;;;;;;;;;;;;12.05;100.00;102285.94;5050722;28;1113;-76
2023/10/05 07:08:24;;;;;;;;;;;;;;;12.07;100.00;102285.84;5026930;28;1351;-74
2023/10/05 07:10:50;;;;;;;;;;;;;;;12.10;100.00;102286.47;5043584;28;1174;-74
2023/10/05 07:13:19;;;;;;;;;;;;;;;12.10;100.00;102281.28;5052024;28;1146;-74
2023/10/05 07:15:44;;;;;;;;;;;;;;;12.14;100.00;102292.31;5042295;28;1894;-75
2023/10/05 07:18:09;;;;;;;;;;;;;;;12.18;100.00;102298.97;5033256;28;1307;-74
2023/10/05 07:20:36;;;;;;;;;;;;;;;12.19;100.00;102306.69;5045529;28;1253;-74
2023/10/05 07:23:03;;;;;;;;;;;;;;;12.21;100.00;102303.97;5048111;28;1407;-75
2023/10/05 07:25:28;;;;;;;;;;;;;;;12.23;100.00;102313.34;5048771;28;1142;-74
2023/10/05 07:27:54;;;;;;;;;;;;;;;12.27;100.00;102310.53;5030199;28;1459;-75
2023/10/05 07:30:19;;;;;;;;;;;;;;;12.31;100.00;102306.81;5044164;28;1202;-74
2023/10/05 07:32:44;;;;;;;;;;;;;;;12.31;100.00;102307.66;5049504;28;1138;-76
2023/10/05 07:35:12;;;;;;;;;;;;;;;12.36;100.00;102317.75;5045199;28;1141;-74
2023/10/05 07:37:37;;;;;;;;;;;;;;;12.40;100.00;102324.44;5029813;28;1902;-74
2023/10/05 07:40:13;;;;;;;;;;;;;;;12.43;100.00;102321.63;5027364;28;1202;-74
2023/10/05 07:42:38;;;;;;;;;;;;;;;12.45;100.00;102328.41;5047940;28;961;-76
2023/10/05 07:45:07;;;;;;;;;;;;;;;12.49;100.00;102335.06;5047648;28;1402;-74
2023/10/05 07:47:32;;;;;;;;;;;;;;;12.56;100.00;102330.31;5025911;28;1524;-74
2023/10/05 07:49:57;;;;;;;;;;;;;;;12.57;100.00;102337.19;5047989;28;1014;-76
2023/10/05 07:52:22;;;;;;;;;;;;;;;12.61;100.00;102343.81;5026784;28;1369;-74
2023/10/05 07:54:47;;;;;;;;;;;;;;;12.66;100.00;102346.97;5044552;28;1284;-75
2023/10/05 07:57:13;;;;;;;;;;;;;;;12.71;100.00;102339.69;5044338;28;1898;-74
2023/10/05 07:59:40;;;;;;;;;;;;;;;12.75;100.00;102351.56;5028146;28;1325;-75
2023/10/05 08:02:06;;;;;;;;;;;;;;;12.81;100.00;102344.28;5047119;28;1259;-74
2023/10/05 08:04:32;;;;;;;;;;;;;;;12.86;100.00;102342.22;5046640;28;1132;-74
2023/10/05 08:06:57;;;;;;;;;;;;;;;12.92;100.00;102336.59;5025798;28;1210;-74
2023/10/05 08:09:23;;;;;;;;;;;;;;;12.97;100.00;102334.53;5026788;28;1366;-74
2023/10/05 08:11:50;;;;;;;;;;;;;;;13.02;100.00;102342.84;5048403;28;1474;-75
2023/10/05 08:14:17;;;;;;;;;;;;;;;13.08;100.00;102346.81;5034218;28;1370;-74
2023/10/05 08:16:42;;;;;;;;;;;;;;;13.15;100.00;102343.69;5048894;28;1973;-75
2023/10/05 08:19:08;;;;;;;;;;;;;;;13.19;100.00;102350.34;5029172;28;1338;-74
2023/10/05 08:21:34;;;;;;;;;;;;;;;13.26;100.00;102349.03;5032794;28;1337;-74
2023/10/05 08:23:59;;;;;;;;;;;;;;;13.35;100.00;102354.53;5053963;28;1114;-74
2023/10/05 08:26:28;;;;;;;;;;;;;;;13.41;100.00;102359.31;5051502;28;1233;-75
2023/10/05 08:28:53;;;;;;;;;;;;;;;13.47;100.00;102348.47;5048443;28;1177;-74
2023/10/05 08:31:23;;;;;;;;;;;;;;;13.55;100.00;102351.38;5045029;28;1118;-74
2023/10/05 08:33:50;;;;;;;;;;;;;;;13.66;100.00;102355.84;5049078;28;1145;-74
2023/10/05 08:36:17;;;;;;;;;;;;;;;13.70;100.00;102358.13;5049815;28;1969;-74
2023/10/05 08:38:44;;;;;;;;;;;;;;;13.77;100.00;102366.38;5057382;28;1046;-75
2023/10/05 08:41:12;;;;;;;;;;;;;;;13.84;100.00;102361.53;5048331;28;1166;-75
2023/10/05 08:43:40;;;;;;;;;;;;;;;13.88;100.00;102357.75;5034324;28;1398;-74
2023/10/05 08:46:32;;;;;;;;;;;;;;;13.93;100.00;102360.88;5049319;28;1100;-73
2023/10/05 08:49:07;;;;;;;;;;;;;;;13.99;100.00;102360.44;5043763;23;1575;-75
2023/10/05 08:51:32;;;;;;;;;;;;;;;14.09;100.00;102364.06;5046745;28;1313;-74
2023/10/05 08:54:02;;;;;;;;;;;;;;;14.13;100.00;102368.13;5051670;28;1098;-74
2023/10/05 08:56:30;;;;;;;;;;;;;;;14.19;100.00;102372.91;5048664;28;1973;-75
2023/10/05 08:58:59;;;;;;;;;;;;;;;14.28;99.72;102381.84;5030402;28;1420;-73
2023/10/05 09:01:25;;;;;;;;;;;;;;;14.31;99.49;102382.44;5026342;28;1408;-76
2023/10/05 09:07:35;;;;;;;;;;;;;;;14.45;99.36;102388.44;5044768;28;1168;-76
2023/10/05 09:09:53;;;;;;;;;;;;;;;14.52;98.59;102394.91;5031274;28;1165;-74
2023/10/05 09:15:09;;;;;;;;;;;;;;;14.63;98.50;102405.41;5047525;28;1368;-74
2023/10/05 09:17:34;;;;;;;;;;;;;;;14.62;98.38;102406.31;5028523;28;1890;-73
2023/10/05 09:20:18;;;;;;;;;;;;;;;14.64;98.29;102409.69;5044643;28;1475;-74
2023/10/05 09:22:47;;;;;;;;;;;;;;;14.65;97.23;102416.56;5047143;28;1388;-74
2023/10/05 09:25:15;;;;;;;;;;;;;;;14.65;97.33;102420.97;5033422;28;1288;-74
2023/10/05 09:27:50;;;;;;;;;;;;;;;14.65;97.54;102419.19;5037377;28;1470;-73
2023/10/05 09:30:15;;;;;;;;;;;;;;;14.68;97.56;102425.94;5041305;28;1164;-74
2023/10/05 09:32:40;;;;;;;;;;;;;;;14.70;97.16;102430.13;5049083;28;1285;-75
2023/10/05 09:35:10;;;;;;;;;;;;;;;14.72;97.01;102427.38;5037839;28;1160;-74
2023/10/05 09:37:39;;;;;;;;;;;;;;;14.73;96.95;102429.88;5050165;28;1953;-74
2023/10/05 09:40:05;;;;;;;;;;;;;;;14.76;96.92;102421.84;5046101;28;1316;-76
2023/10/05 09:42:34;;;;;;;;;;;;;;;14.77;97.08;102423.50;5045728;28;1137;-74
2023/10/05 09:45:06;;;;;;;;;;;;;;;14.79;96.65;102418.97;5051155;28;1234;-74
2023/10/05 09:47:33;;;;;;;;;;;;;;;14.79;96.98;102418.97;5025088;28;1288;-75
2023/10/05 09:50:00;;;;;;;;;;;;;;;14.80;96.38;102415.44;5049132;28;1524;-75
2023/10/05 09:52:34;;;;;;;;;;;;;;;14.80;96.45;102410.22;5048971;28;1193;-74
2023/10/05 09:55:00;;;;;;;;;;;;;;;14.82;96.05;102408.31;5047152;28;1026;-74
2023/10/05 09:57:26;;;;;;;;;;;;;;;14.83;96.26;102414.38;5027378;28;1897;-74
2023/10/05 09:59:59;;;;;;;;;;;;;;;14.85;96.54;102413.31;5044206;28;999;-73
2023/10/05 10:02:30;;;;;;;;;;;;;;;14.88;96.61;102405.25;5046567;28;1233;-74
2023/10/05 10:04:57;;;;;;;;;;;;;;;14.93;96.41;102412.75;5029413;28;1451;-74
2023/10/05 10:07:26;;;;;;;;;;;;;;;14.97;96.23;102415.97;5043387;28;1193;-74
2023/10/05 10:09:56;;;;;;;;;;;;;;;15.01;96.43;102417.38;5031264;28;1444;-74
2023/10/05 10:12:33;;;;;;;;;;;;;;;15.06;96.02;102420.50;5048433;28;1207;-74
2023/10/05 10:14:59;;;;;;;;;;;;;;;15.13;95.76;102417.28;5044723;28;1167;-74
2023/10/05 10:17:31;;;;;;;;;;;;;;;15.13;95.90;102421.69;5026504;28;1941;-74
2023/10/05 10:20:17;;;;;;;;;;;;;;;15.20;95.61;102429.91;5039540;28;1423;-74
2023/10/05 10:22:50;;;;;;;;;;;;;;;15.21;95.21;102424.56;5054588;28;1636;-74
2023/10/05 10:25:37;;;;;;;;;;;;;;;15.25;94.72;102420.75;5043843;28;998;-74
2023/10/05 10:28:43;;;;;;;;;;;;;;;15.29;94.58;102422.19;5044033;28;1212;-75
2023/10/05 10:31:13;;;;;;;;;;;;;;;15.32;94.57;102427.19;5047851;28;1137;-75
2023/10/05 10:33:40;;;;;;;;;;;;;;;15.35;94.12;102416.50;5048539;28;1157;-75
2023/10/05 10:36:13;;;;;;;;;;;;;;;15.44;94.22;102419.38;5046990;28;1972;-74
2023/10/05 10:38:39;;;;;;;;;;;;;;;15.52;94.42;102422.22;5050241;28;1068;-74
2023/10/05 10:41:16;;;;;;;;;;;;;;;15.62;94.26;102420.56;5047665;28;1143;-75
2023/10/05 10:43:49;;;;;;;;;;;;;;;15.71;93.33;102427.72;5052546;28;1159;-74
2023/10/05 10:46:21;;;;;;;;;;;;;;;15.77;93.33;102422.03;5051559;28;1013;-74
2023/10/05 10:48:57;;;;;;;;;;;;;;;15.78;93.41;102423.69;5051870;28;1074;-74
2023/10/05 10:51:23;;;;;;;;;;;;;;;15.86;92.78;102416.06;5032716;28;1302;-75
2023/10/05 10:53:55;;;;;;;;;;;;;;;15.91;92.80;102429.59;5027899;28;1157;-74
2023/10/05 10:56:21;;;;;;;;;;;;;;;16.01;92.67;102418.44;5045277;28;1960;-73
2023/10/05 10:58:48;;;;;;;;;;;;;;;16.11;91.43;102419.34;5046266;28;1148;-76
2023/10/05 11:01:28;;;;;;;;;;;;;;;16.11;91.93;102411.47;5028612;28;1197;-76
2023/10/05 11:03:55;;;;;;;;;;;;;;;16.10;91.82;102409.81;5025492;28;1496;-75
2023/10/05 11:06:23;;;;;;;;;;;;;;;16.13;92.01;102413.03;5033805;28;1201;-74
2023/10/05 11:08:52;;;;;;;;;;;;;;;16.23;91.12;102407.91;5048734;28;1097;-75
2023/10/05 11:11:19;;;;;;;;;;;;;;;16.28;90.94;102410.97;5047826;28;1323;-73
2023/10/05 11:13:49;;;;;;;;;;;;;;;16.38;91.06;102405.81;5046090;28;1149;-74
2023/10/05 11:16:19;;;;;;;;;;;;;;;16.51;90.77;102405.66;5023549;28;1902;-74
2023/10/05 11:18:57;;;;;;;;;;;;;;;16.57;90.84;102411.22;5027499;28;1314;-74
2023/10/05 11:21:25;;;;;;;;;;;;;;;16.67;90.32;102411.31;5027696;28;1231;-75
2023/10/05 11:23:57;;;;;;;;;;;;;;;16.72;90.34;102409.16;5039275;28;1332;-75
2023/10/05 11:26:27;;;;;;;;;;;;;;;16.79;89.69;102415.56;5040029;28;1443;-74
2023/10/05 11:28:55;;;;;;;;;;;;;;;16.88;89.50;102422.66;5032112;28;1315;-74
2023/10/05 11:31:26;;;;;;;;;;;;;;;16.95;88.31;102420.38;5050122;28;1086;-75
2023/10/05 11:33:53;;;;;;;;;;;;;;;16.92;86.73;102421.47;5037230;28;1141;-74
2023/10/05 11:36:27;;;;;;;;;;;;;;;16.88;86.70;102412.19;5047006;28;1957;-74
2023/10/05 11:38:57;;;;;;;;;;;;;;;16.82;86.74;102410.06;5049822;28;1305;-74
2023/10/05 11:41:23;;;;;;;;;;;;;;;16.87;87.07;102415.78;5047155;28;1185;-75
2023/10/05 11:43:52;;;;;;;;;;;;;;;16.87;87.68;102418.38;5047250;28;1241;-74
2023/10/05 11:46:23;;;;;;;;;;;;;;;16.89;87.00;102416.47;5050508;28;1233;-75
2023/10/05 11:48:50;;;;;;;;;;;;;;;16.90;86.15;102415.50;5046461;28;1747;-73
2023/10/05 11:51:16;;;;;;;;;;;;;;;16.92;85.98;102421.47;5025470;28;1292;-75
2023/10/05 11:53:43;;;;;;;;;;;;;;;16.89;85.83;102415.63;5026375;28;1435;-74
2023/10/05 11:56:09;;;;;;;;;;;;;;;16.96;85.90;102420.22;5042007;28;1902;-76
2023/10/05 11:58:40;;;;;;;;;;;;;;;16.82;85.64;102415.31;5026239;28;1263;-76
2023/10/05 12:01:06;;;;;;;;;;;;;;;16.93;83.71;102417.88;5025685;28;1196;-76
2023/10/05 12:03:31;;;;;;;;;;;;;;;16.79;85.28;102415.56;5045067;28;1134;-74
2023/10/05 12:06:03;;;;;;;;;;;;;;;16.83;85.51;102416.97;5035451;28;1243;-75
2023/10/05 12:08:30;;;;;;;;;;;;;;;16.84;85.50;102416.00;5048372;28;1244;-75
2023/10/05 12:10:59;;;;;;;;;;;;;;;16.85;85.05;102409.81;5052819;28;1190;-74
2023/10/05 12:13:24;;;;;;;;;;;;;;;16.84;86.02;102413.38;5052943;28;1181;-75
2023/10/05 12:15:51;;;;;;;;;;;;;;;16.91;86.12;102414.53;5029357;28;1238;-74
2023/10/05 12:18:16;;;;;;;;;;;;;;;17.02;85.18;102399.72;5050300;28;1385;-74
2023/10/05 12:20:42;;;;;;;;;;;;;;;17.01;85.56;102417.22;5046964;28;1420;-74
2023/10/05 12:23:07;;;;;;;;;;;;;;;17.06;84.99;102412.44;5032788;28;1091;-76
2023/10/05 12:25:33;;;;;;;;;;;;;;;17.04;84.55;102414.38;5048165;28;1251;-75
2023/10/05 12:27:58;;;;;;;;;;;;;;;17.10;84.32;102413.03;5049961;28;1207;-74
2023/10/05 12:30:24;;;;;;;;;;;;;;;17.07;84.55;102413.25;5029679;28;1298;-76
2023/10/05 12:32:51;;;;;;;;;;;;;;;17.09;84.17;102406.09;5047111;28;1228;-73
2023/10/05 12:35:18;;;;;;;;;;;;;;;17.09;84.10;102411.34;5045905;28;1201;-75
2023/10/05 12:37:44;;;;;;;;;;;;;;;17.10;84.37;102399.91;5035622;28;1918;-74
2023/10/05 12:40:19;;;;;;;;;;;;;;;17.15;83.96;102406.44;5053740;28;1239;-74
2023/10/05 12:42:54;;;;;;;;;;;;;;;17.19;83.16;102409.59;5035756;28;1451;-74
2023/10/05 12:45:22;;;;;;;;;;;;;;;17.21;83.01;102415.56;5038020;28;1504;-75
2023/10/05 12:47:57;;;;;;;;;;;;;;;17.25;82.79;102406.47;5037062;28;1168;-74
2023/10/05 12:50:22;;;;;;;;;;;;;;;17.20;83.08;102406.88;5054816;28;1146;-75
2023/10/05 12:52:51;;;;;;;;;;;;;;;17.27;82.93;102409.81;5051083;28;1081;-74
2023/10/05 12:55:19;;;;;;;;;;;;;;;17.31;83.02;102403.31;5052702;28;1171;-75
2023/10/05 12:57:46;;;;;;;;;;;;;;;17.39;82.61;102414.00;5045397;28;1902;-74
2023/10/05 13:00:19;;;;;;;;;;;;;;;17.43;82.68;102404.91;5031784;28;1582;-74
2023/10/05 13:03:12;;;;;;;;;;;;;;;17.46;82.68;102409.06;5049825;28;1333;-74
2023/10/05 13:05:43;;;;;;;;;;;;;;;17.51;82.26;102412.94;5050535;28;1245;-75
2023/10/05 13:08:10;;;;;;;;;;;;;;;17.50;81.58;102421.78;5054078;28;1227;-74
2023/10/05 13:10:36;;;;;;;;;;;;;;;17.51;81.72;102420.81;5042152;28;1521;-74